• Join FlightAware (Why Join?)
  • Login
  • US Flag 
12:06PM EDT


 

Airport Tracker/Info


-or-


 

Live Flight TrackerFlight Track Log ✈ SWA34 ✈ 01-May-2013 ✈ KHOU - KDAL

Flight Track Log - Related Links

Times and Time Zones

All times are in EDT time to prevent confusion due to time zone crossing. See the SWA34 flight status page for this flight to view local times or setup timezone preferences in your user account.

Time Position Orientation Groundspeed Altitude Reporting Facility
EDT Latitude Longitude Course Direction KTS MPH feet Rate Location/Type
03:36PM 29.6308 -95.2633 90° East 159 183 900  Level Houston Center
03:37PM 29.6308 -95.2142 90° East 248 285 2,800 2,340 Climbing Houston Center
03:38PM 29.6961 -95.2244 352° North 236 272 6,000 3,180 Climbing Houston Center
03:39PM 29.7678 -95.2475 344° North 259 298 9,400 2,760 Climbing Houston Center
03:40PM 29.8567 -95.2744 345° North 321 369 11,700 2,400 Climbing Houston Center
03:41PM 29.9481 -95.3014 346° North 322 371 14,400 2,040 Climbing Houston Center
03:42PM 30.0397 -95.3292 345° North 335 386 16,000 1,680 Climbing Houston Center
03:43PM 30.1403 -95.3600 345° North 364 419 17,900 2,040 Climbing Houston Center
03:44PM 30.2411 -95.3894 346° North 371 427 20,300 2,160 Climbing Houston Center
03:45PM 30.3422 -95.4189 346° North 373 429 22,400 1,980 Climbing Houston Center
03:46PM 30.4694 -95.4567 346° North 388 447 24,400 1,740 Climbing Houston Center
03:47PM 30.5803 -95.4847 348° North 403 464 26,100 1,500 Climbing Houston Center
03:48PM 30.6972 -95.5108 349° North 414 476 27,500 900 Climbing Houston Center
03:49PM 30.8142 -95.5389 348° North 423 487 28,000 900 Climbing Houston Center
03:50PM 30.9308 -95.5650 349° North 426 490 29,400 1,320 Climbing Houston Center
03:51PM 31.0419 -95.5903 349° North 409 471 30,800 1,200 Climbing Houston Center
03:53PM 31.1578 -95.6161 349° North 418 481 32,000 540 Climbing Houston Center
03:54PM 31.3075 -95.6506 349° North 419 482 32,000  Level Fort Worth Center
03:55PM 31.4042 -95.6900 341° North 409 471 32,000 -900 Level Fort Worth Center
03:56PM 31.5053 -95.7614 329° Northwest 409 471 30,200 -1,860 Descending Fort Worth Center
03:57PM 31.6022 -95.8256 331° Northwest 415 478 28,300 -2,100 Descending Fort Worth Center
03:58PM 31.7053 -95.8994 329° Northwest 405 466 26,000 -2,220 Descending Fort Worth Center
03:59PM 31.7894 -95.9494 333° Northwest 386 444 23,900 -2,160 Descending Fort Worth Center
04:00PM 31.8800 -96.0117 330° Northwest 372 428 21,700 -2,160 Descending Fort Worth Center
04:01PM 31.9683 -96.0689 331° Northwest 367 422 19,600 -2,160 Descending Fort Worth Center
04:02PM 32.0503 -96.1267 329° Northwest 348 400 17,400 -2,100 Descending Fort Worth Center
04:03PM 32.1386 -96.1867 330° Northwest 332 382 15,400 -2,100 Descending Fort Worth Center
04:04PM 32.2161 -96.2372 331° Northwest 332 382 13,300 -1,980 Descending Fort Worth Center
04:05PM 32.2856 -96.2781 334° Northwest 307 353 11,500 -1,560 Descending Fort Worth Center
04:06PM 32.3672 -96.3286 332° Northwest 307 353 10,200 -1,140 Descending Fort Worth Center
04:07PM 32.4261 -96.3650 332° Northwest 279 321 9,300 -960 Descending Fort Worth Center
04:08PM 32.5017 -96.4083 334° Northwest 267 307 8,300 -1,020 Descending Fort Worth Center
04:09PM 32.5625 -96.4472 332° Northwest 267 307 7,300 -1,020 Descending Fort Worth Center
04:10PM 32.6358 -96.4908 333° Northwest 267 307 6,300 -900 Descending Fort Worth Center
04:11PM 32.6947 -96.5322 329° Northwest 267 307 5,600 -660 Descending Fort Worth Center
04:12PM 32.7578 -96.5983 319° Northwest 267 307 5,000 -300 Descending Fort Worth Center
04:13PM 32.8081 -96.6522 318° Northwest 273 314 5,100 -300 Climbing Fort Worth Center
04:13PM 32.8500 -96.6833 328° Northwest 275 316 4,600 -840 Descending Dallas / Fort Worth TRACON
04:14PM 32.9000 -96.7500 312° West 249 287 3,800 -840 Descending Dallas / Fort Worth TRACON
04:15PM 32.9333 -96.8167 301° West 238 274 3,000 -780 Descending Dallas / Fort Worth TRACON
04:16PM 32.9167 -96.8833 253° West 170 196 2,200 -780 Descending Dallas / Fort Worth TRACON
04:17PM 32.8833 -96.8833 180° South 140 161 1,500 -840 Descending Dallas / Fort Worth TRACON
04:18PM 32.8667 -96.8667 140° Southeast 142 163 700 -840 Descending Dallas / Fort Worth TRACON